createdAt,value
2022-09-14T00:01:25.827Z,92.36
2022-09-14T00:04:01.853Z,92.49
2022-09-14T00:06:30.630Z,92.49
2022-09-14T00:09:00.776Z,92.61
2022-09-14T00:11:32.172Z,94.33
2022-09-14T00:14:00.891Z,95.54
2022-09-14T00:16:30.758Z,97.94
2022-09-14T00:19:00.772Z,100.00
2022-09-14T00:21:28.461Z,100.00
2022-09-14T00:23:54.959Z,100.00
2022-09-14T00:26:22.961Z,100.00
2022-09-14T00:28:52.095Z,100.00
2022-09-14T00:31:19.982Z,100.00
2022-09-14T00:33:48.427Z,100.00
2022-09-14T00:36:20.677Z,100.00
2022-09-14T00:38:48.477Z,100.00
2022-09-14T00:41:19.070Z,100.00
2022-09-14T00:44:24.178Z,100.00
2022-09-14T00:46:53.668Z,100.00
2022-09-14T00:49:39.422Z,100.00
2022-09-14T00:52:09.701Z,100.00
2022-09-14T00:54:41.531Z,100.00
2022-09-14T00:57:08.364Z,100.00
2022-09-14T00:59:38.229Z,100.00
2022-09-14T01:02:07.454Z,100.00
2022-09-14T01:04:34.022Z,100.00
2022-09-14T01:07:15.205Z,100.00
2022-09-14T01:10:00.430Z,100.00
2022-09-14T01:12:45.164Z,100.00
2022-09-14T01:15:23.476Z,100.00
2022-09-14T01:18:16.680Z,100.00
2022-09-14T01:21:19.336Z,100.00
2022-09-14T01:24:22.843Z,100.00
2022-09-14T01:27:21.551Z,100.00
2022-09-14T01:30:02.513Z,100.00
2022-09-14T01:32:36.003Z,100.00
2022-09-14T01:35:07.755Z,100.00
2022-09-14T01:37:40.569Z,100.00
2022-09-14T01:40:10.878Z,100.00
2022-09-14T01:42:41.643Z,100.00
2022-09-14T01:45:13.208Z,100.00
2022-09-14T01:47:54.145Z,100.00
2022-09-14T01:50:26.071Z,100.00
2022-09-14T01:53:00.998Z,100.00
2022-09-14T01:55:32.262Z,100.00
2022-09-14T01:58:05.411Z,100.00
2022-09-14T02:00:32.788Z,100.00
2022-09-14T02:03:06.707Z,100.00
2022-09-14T02:06:02.716Z,100.00
2022-09-14T02:08:31.596Z,100.00
2022-09-14T02:10:59.030Z,100.00
2022-09-14T02:13:26.953Z,100.00
2022-09-14T02:15:53.930Z,100.00
2022-09-14T02:18:20.874Z,100.00
2022-09-14T02:20:53.132Z,100.00
2022-09-14T02:23:19.704Z,100.00
2022-09-14T02:25:47.510Z,100.00
2022-09-14T02:28:14.588Z,100.00
2022-09-14T02:31:08.827Z,100.00
2022-09-14T02:34:20.258Z,100.00
2022-09-14T02:37:00.932Z,100.00
2022-09-14T02:39:39.833Z,100.00
2022-09-14T02:42:25.078Z,100.00
2022-09-14T02:45:16.241Z,100.00
2022-09-14T02:48:15.126Z,100.00
2022-09-14T02:50:57.180Z,100.00
2022-09-14T02:53:39.731Z,100.00
2022-09-14T02:56:09.070Z,100.00
2022-09-14T02:58:38.778Z,100.00
2022-09-14T03:01:07.038Z,100.00
2022-09-14T03:03:35.747Z,100.00
2022-09-14T03:06:03.616Z,100.00
2022-09-14T03:08:30.534Z,100.00
2022-09-14T03:10:57.536Z,100.00
2022-09-14T03:13:24.732Z,100.00
2022-09-14T03:15:51.872Z,100.00
2022-09-14T03:18:19.046Z,100.00
2022-09-14T03:20:45.565Z,100.00
2022-09-14T03:23:12.905Z,100.00
2022-09-14T03:25:42.061Z,100.00
2022-09-14T03:28:09.772Z,100.00
2022-09-14T03:30:36.534Z,100.00
2022-09-14T03:33:03.696Z,100.00
2022-09-14T03:35:31.986Z,100.00
2022-09-14T03:37:59.783Z,100.00
2022-09-14T03:40:27.426Z,100.00
2022-09-14T03:42:54.472Z,100.00
2022-09-14T03:45:21.824Z,100.00
2022-09-14T03:47:49.161Z,100.00
2022-09-14T03:50:17.222Z,100.00
2022-09-14T03:52:44.109Z,100.00
2022-09-14T03:55:11.518Z,100.00
2022-09-14T03:57:38.340Z,100.00
2022-09-14T04:00:06.825Z,100.00
2022-09-14T04:02:33.425Z,100.00
2022-09-14T04:05:00.080Z,100.00
2022-09-14T04:07:26.866Z,100.00
2022-09-14T04:09:53.421Z,100.00
2022-09-14T04:12:19.939Z,100.00
2022-09-14T04:14:46.465Z,100.00
2022-09-14T04:17:12.984Z,100.00
2022-09-14T04:19:42.206Z,100.00
2022-09-14T04:22:08.814Z,100.00
2022-09-14T04:24:35.999Z,100.00
2022-09-14T04:27:02.692Z,100.00
2022-09-14T04:29:30.644Z,100.00
2022-09-14T04:31:57.773Z,100.00
2022-09-14T04:34:24.742Z,100.00
2022-09-14T04:36:51.262Z,100.00
2022-09-14T04:39:18.289Z,100.00
2022-09-14T04:41:44.843Z,100.00
2022-09-14T04:44:11.921Z,100.00
2022-09-14T04:46:45.074Z,100.00
2022-09-14T04:49:13.190Z,100.00
2022-09-14T04:51:39.859Z,100.00
2022-09-14T04:54:07.302Z,100.00
2022-09-14T04:56:35.944Z,100.00
2022-09-14T04:59:04.446Z,100.00
2022-09-14T05:01:42.127Z,100.00
2022-09-14T05:04:10.048Z,100.00
2022-09-14T05:06:38.388Z,100.00
2022-09-14T05:09:08.345Z,100.00
2022-09-14T05:11:36.438Z,100.00
2022-09-14T05:14:03.811Z,100.00
2022-09-14T05:16:35.506Z,100.00
2022-09-14T05:19:05.233Z,100.00
2022-09-14T05:21:33.809Z,100.00
2022-09-14T05:24:03.467Z,100.00
2022-09-14T05:26:31.733Z,100.00
2022-09-14T05:29:00.809Z,100.00
2022-09-14T05:31:29.146Z,100.00
2022-09-14T05:33:55.783Z,100.00
2022-09-14T05:36:23.007Z,100.00
2022-09-14T05:38:49.742Z,100.00
2022-09-14T05:41:16.946Z,100.00
2022-09-14T05:43:44.508Z,100.00
2022-09-14T05:46:13.919Z,100.00
2022-09-14T05:48:40.816Z,100.00
2022-09-14T05:51:16.755Z,100.00
2022-09-14T05:53:47.461Z,100.00
2022-09-14T05:56:14.586Z,100.00
2022-09-14T05:58:42.367Z,100.00
2022-09-14T06:01:25.308Z,100.00
2022-09-14T06:03:56.738Z,100.00
2022-09-14T06:06:24.066Z,100.00
2022-09-14T06:08:52.703Z,100.00
2022-09-14T06:11:28.972Z,100.00
2022-09-14T06:13:56.102Z,100.00
2022-09-14T06:16:24.511Z,100.00
2022-09-14T06:18:51.564Z,100.00
2022-09-14T06:21:20.386Z,100.00
2022-09-14T06:23:48.290Z,100.00
2022-09-14T06:26:16.025Z,100.00
2022-09-14T06:28:43.206Z,100.00
2022-09-14T06:31:12.424Z,100.00
2022-09-14T06:33:43.851Z,100.00
2022-09-14T06:36:15.074Z,100.00
2022-09-14T06:38:42.350Z,100.00
2022-09-14T06:41:12.835Z,100.00
2022-09-14T06:43:40.941Z,100.00
2022-09-14T06:46:16.126Z,100.00
2022-09-14T06:48:50.810Z,100.00
2022-09-14T06:51:32.160Z,100.00
2022-09-14T06:54:00.172Z,100.00
2022-09-14T06:56:29.246Z,100.00
2022-09-14T06:58:55.825Z,100.00
2022-09-14T07:01:22.807Z,100.00
2022-09-14T07:03:52.298Z,100.00
2022-09-14T07:06:22.680Z,100.00
2022-09-14T07:08:50.971Z,100.00
2022-09-14T07:11:20.130Z,100.00
2022-09-14T07:13:47.534Z,100.00
2022-09-14T07:16:14.986Z,100.00
2022-09-14T07:18:41.900Z,100.00
2022-09-14T07:21:16.994Z,100.00
2022-09-14T07:23:45.295Z,100.00
2022-09-14T07:26:14.762Z,100.00
2022-09-14T07:28:43.359Z,100.00
2022-09-14T07:31:21.573Z,100.00
2022-09-14T07:33:48.666Z,100.00
2022-09-14T07:36:15.785Z,100.00
2022-09-14T07:38:52.235Z,100.00
2022-09-14T07:41:28.458Z,100.00
2022-09-14T07:43:57.419Z,100.00
2022-09-14T07:46:24.400Z,100.00
2022-09-14T07:48:58.870Z,100.00
2022-09-14T07:51:26.875Z,100.00
2022-09-14T07:53:53.819Z,100.00
2022-09-14T07:56:21.838Z,100.00
2022-09-14T07:58:53.983Z,100.00
2022-09-14T08:01:22.030Z,100.00
2022-09-14T08:03:49.267Z,100.00
2022-09-14T08:06:21.493Z,100.00
2022-09-14T08:08:51.168Z,100.00
2022-09-14T08:11:19.480Z,100.00
2022-09-14T08:13:53.367Z,100.00
2022-09-14T08:16:20.879Z,100.00
2022-09-14T08:18:48.583Z,100.00
2022-09-14T08:21:17.499Z,100.00
2022-09-14T08:23:45.179Z,100.00
2022-09-14T08:26:14.393Z,100.00
2022-09-14T08:28:41.852Z,100.00
2022-09-14T08:31:13.582Z,100.00
2022-09-14T08:33:44.264Z,100.00
2022-09-14T08:36:13.334Z,100.00
2022-09-14T08:38:40.171Z,100.00
2022-09-14T08:41:24.761Z,100.00
2022-09-14T08:43:52.025Z,100.00
2022-09-14T08:46:36.768Z,100.00
2022-09-14T08:49:10.937Z,100.00
2022-09-14T08:51:37.604Z,100.00
2022-09-14T08:54:04.138Z,100.00
2022-09-14T08:56:35.089Z,100.00
2022-09-14T08:59:17.849Z,100.00
2022-09-14T09:02:03.108Z,100.00
2022-09-14T09:04:37.011Z,100.00
2022-09-14T09:07:29.966Z,100.00
2022-09-14T09:09:58.301Z,100.00
2022-09-14T09:12:59.477Z,100.00
2022-09-14T09:15:32.604Z,100.00
2022-09-14T09:18:08.615Z,100.00
2022-09-14T09:20:44.158Z,100.00
2022-09-14T09:23:14.853Z,100.00
2022-09-14T09:26:01.126Z,100.00
2022-09-14T09:28:29.792Z,100.00
2022-09-14T09:31:01.078Z,100.00
2022-09-14T09:33:28.348Z,100.00
2022-09-14T09:35:55.641Z,100.00
2022-09-14T09:38:26.074Z,100.00
2022-09-14T09:41:14.890Z,100.00
2022-09-14T09:44:06.730Z,100.00
2022-09-14T09:46:37.675Z,100.00
2022-09-14T09:49:16.694Z,100.00
2022-09-14T09:51:44.041Z,100.00
2022-09-14T09:54:13.672Z,100.00
2022-09-14T09:57:02.155Z,100.00
2022-09-14T09:59:41.806Z,100.00
2022-09-14T10:02:28.781Z,100.00
2022-09-14T10:04:59.550Z,100.00
2022-09-14T10:07:27.686Z,100.00
2022-09-14T10:09:58.547Z,100.00
2022-09-14T10:12:25.976Z,100.00
2022-09-14T10:15:07.953Z,100.00
2022-09-14T10:17:34.825Z,100.00
2022-09-14T10:20:01.803Z,100.00
2022-09-14T10:22:33.002Z,100.00
2022-09-14T10:25:20.820Z,100.00
2022-09-14T10:27:59.488Z,100.00
2022-09-14T10:30:34.570Z,100.00
2022-09-14T10:33:04.656Z,99.97
2022-09-14T10:35:52.486Z,100.00
2022-09-14T10:38:32.001Z,99.39
2022-09-14T10:41:29.926Z,96.83
2022-09-14T10:44:22.829Z,95.83
2022-09-14T10:46:56.157Z,93.37
2022-09-14T10:49:33.575Z,93.52
2022-09-14T10:52:22.001Z,94.14
2022-09-14T10:55:32.233Z,91.95
2022-09-14T10:58:07.449Z,92.76
2022-09-14T11:00:51.886Z,94.46
2022-09-14T11:03:27.710Z,95.28
2022-09-14T11:06:25.384Z,96.09
2022-09-14T11:09:07.756Z,95.54
2022-09-14T11:11:37.332Z,95.07
2022-09-14T11:14:17.901Z,95.60
2022-09-14T11:16:57.542Z,92.31
2022-09-14T11:19:44.406Z,91.84
2022-09-14T11:22:33.381Z,92.33
2022-09-14T11:25:05.944Z,91.14
2022-09-14T11:27:41.238Z,89.88
2022-09-14T11:30:16.461Z,91.13
2022-09-14T11:32:51.742Z,94.08
2022-09-14T11:35:25.347Z,92.69
2022-09-14T11:38:11.037Z,90.72
2022-09-14T11:40:45.316Z,91.53
2022-09-14T11:43:16.972Z,91.03
2022-09-14T11:46:21.333Z,91.73
2022-09-14T11:48:57.254Z,90.37
2022-09-14T11:51:32.528Z,89.73
2022-09-14T11:53:59.195Z,89.35
2022-09-14T11:56:32.021Z,91.35
2022-09-14T11:59:01.538Z,90.43
2022-09-14T12:01:32.885Z,90.56
2022-09-14T12:04:14.736Z,90.77
2022-09-14T12:06:50.150Z,89.63
2022-09-14T12:09:17.189Z,90.62
2022-09-14T12:11:45.550Z,90.64
2022-09-14T12:14:24.308Z,91.18
2022-09-14T12:20:27.764Z,91.58
2022-09-14T12:23:24.870Z,91.75
2022-09-14T12:26:05.978Z,92.44
2022-09-14T12:28:35.283Z,93.01
2022-09-14T12:31:05.107Z,92.62
2022-09-14T12:33:34.295Z,91.43
2022-09-14T12:36:05.986Z,90.69
2022-09-14T12:38:38.242Z,90.54
2022-09-14T12:41:10.556Z,87.65
2022-09-14T12:43:37.303Z,88.02
2022-09-14T12:46:08.000Z,87.48
2022-09-14T12:48:47.094Z,85.71
2022-09-14T12:51:29.241Z,82.97
2022-09-14T12:54:01.702Z,82.23
2022-09-14T12:56:40.287Z,80.37
2022-09-14T12:59:15.994Z,79.15
2022-09-14T13:02:00.982Z,78.15
2022-09-14T13:04:35.006Z,80.88
2022-09-14T13:07:05.858Z,81.19
2022-09-14T13:09:33.318Z,82.47
2022-09-14T13:11:59.788Z,84.20
2022-09-14T13:14:30.734Z,83.99
2022-09-14T13:16:59.974Z,85.43
2022-09-14T13:19:30.898Z,85.85
2022-09-14T13:22:00.508Z,85.90
2022-09-14T13:24:36.538Z,87.38
2022-09-14T13:27:04.390Z,88.21
2022-09-14T13:29:31.150Z,85.62
2022-09-14T13:32:03.309Z,86.06
2022-09-14T13:34:44.387Z,85.45
2022-09-14T13:37:14.450Z,88.83
2022-09-14T13:39:42.059Z,89.90
2022-09-14T13:42:09.781Z,90.94
2022-09-14T13:44:45.439Z,91.18
2022-09-14T13:47:15.108Z,89.58
2022-09-14T13:49:44.165Z,89.52
2022-09-14T13:52:22.508Z,89.21
2022-09-14T13:55:08.776Z,89.48
2022-09-14T13:57:35.505Z,87.23
2022-09-14T14:00:14.514Z,86.50
2022-09-14T14:02:48.082Z,83.38
2022-09-14T14:05:30.362Z,81.51
2022-09-14T14:07:58.982Z,85.62
2022-09-14T14:10:37.180Z,84.22
2022-09-14T14:13:04.029Z,83.10
2022-09-14T14:15:44.193Z,82.88
2022-09-14T14:18:35.573Z,84.47
2022-09-14T14:21:13.275Z,85.55
2022-09-14T14:23:56.745Z,91.37
2022-09-14T14:26:27.589Z,94.06
2022-09-14T14:28:55.049Z,96.92
2022-09-14T14:31:22.835Z,100.00
2022-09-14T14:33:53.499Z,98.87
2022-09-14T14:36:20.030Z,97.03
2022-09-14T14:38:48.107Z,96.73
2022-09-14T14:41:22.056Z,98.41
2022-09-14T14:43:50.845Z,97.38
2022-09-14T14:46:17.889Z,100.00
2022-09-14T14:48:44.565Z,100.00
2022-09-14T14:51:15.246Z,100.00
2022-09-14T14:53:42.961Z,100.00
2022-09-14T14:56:13.733Z,100.00
2022-09-14T14:58:47.444Z,100.00
2022-09-14T15:01:14.131Z,100.00
2022-09-14T15:03:40.751Z,100.00
2022-09-14T15:06:23.141Z,100.00
2022-09-14T15:08:56.616Z,100.00
2022-09-14T15:11:23.983Z,100.00
2022-09-14T15:13:50.906Z,100.00
2022-09-14T15:16:17.976Z,100.00
2022-09-14T15:18:44.742Z,100.00
2022-09-14T15:21:11.695Z,100.00
2022-09-14T15:23:38.572Z,100.00
2022-09-14T15:26:05.810Z,100.00
2022-09-14T15:28:35.818Z,100.00
2022-09-14T15:31:04.897Z,100.00
2022-09-14T15:33:34.189Z,100.00
2022-09-14T15:36:01.200Z,100.00
2022-09-14T15:38:27.845Z,100.00
2022-09-14T15:40:54.445Z,100.00
2022-09-14T15:43:21.105Z,100.00
2022-09-14T15:45:47.826Z,100.00
2022-09-14T15:48:16.338Z,100.00
2022-09-14T15:50:44.546Z,100.00
2022-09-14T15:53:12.681Z,100.00
2022-09-14T15:55:41.355Z,100.00
2022-09-14T15:58:08.829Z,100.00
2022-09-14T16:00:36.456Z,100.00
2022-09-14T16:03:03.945Z,100.00
2022-09-14T16:05:31.365Z,100.00
2022-09-14T16:07:57.923Z,100.00
2022-09-14T16:10:25.666Z,100.00
2022-09-14T16:13:18.393Z,100.00
2022-09-14T16:15:44.990Z,100.00
2022-09-14T16:18:11.842Z,100.00
2022-09-14T16:20:38.381Z,100.00
2022-09-14T16:23:05.035Z,100.00
2022-09-14T16:25:31.733Z,100.00
2022-09-14T16:27:58.242Z,100.00
2022-09-14T16:30:24.736Z,100.00
2022-09-14T16:32:52.460Z,100.00
2022-09-14T16:35:19.076Z,100.00
2022-09-14T16:37:45.624Z,100.00
2022-09-14T16:40:13.195Z,100.00
2022-09-14T16:42:39.967Z,100.00
2022-09-14T16:45:07.235Z,100.00
2022-09-14T16:47:33.721Z,100.00
2022-09-14T16:50:00.568Z,100.00
2022-09-14T16:52:27.541Z,100.00
2022-09-14T16:54:56.123Z,100.00
2022-09-14T16:57:25.480Z,100.00
2022-09-14T16:59:52.011Z,100.00
2022-09-14T17:02:18.634Z,100.00
2022-09-14T17:04:45.249Z,100.00
2022-09-14T17:07:11.759Z,100.00
2022-09-14T17:09:38.717Z,100.00
2022-09-14T17:12:05.490Z,100.00
2022-09-14T17:14:33.428Z,100.00
2022-09-14T17:17:00.543Z,100.00
2022-09-14T17:19:27.573Z,100.00
2022-09-14T17:21:54.777Z,100.00
2022-09-14T17:24:21.973Z,100.00
2022-09-14T17:26:49.219Z,100.00
2022-09-14T17:29:15.852Z,100.00
2022-09-14T17:31:44.850Z,100.00
2022-09-14T17:34:14.095Z,100.00
2022-09-14T17:36:40.743Z,100.00
2022-09-14T17:39:12.062Z,100.00
2022-09-14T17:41:40.004Z,100.00
2022-09-14T17:44:09.753Z,100.00
2022-09-14T17:46:41.453Z,100.00
2022-09-14T17:49:13.993Z,100.00
2022-09-14T17:51:40.957Z,100.00
2022-09-14T17:54:08.009Z,100.00
2022-09-14T17:56:34.587Z,100.00
2022-09-14T17:59:05.193Z,100.00
2022-09-14T18:01:33.345Z,100.00
2022-09-14T18:04:03.377Z,100.00
2022-09-14T18:06:33.026Z,100.00
2022-09-14T18:09:05.087Z,100.00
2022-09-14T18:11:31.975Z,100.00
2022-09-14T18:13:58.570Z,100.00
2022-09-14T18:16:26.204Z,100.00
2022-09-14T18:18:52.813Z,100.00
2022-09-14T18:21:19.882Z,100.00
2022-09-14T18:23:51.300Z,100.00
2022-09-14T18:26:18.453Z,100.00
2022-09-14T18:28:46.429Z,100.00
2022-09-14T18:31:15.900Z,100.00
2022-09-14T18:33:55.566Z,100.00
2022-09-14T18:36:22.605Z,100.00
2022-09-14T18:38:49.850Z,100.00
2022-09-14T18:41:18.136Z,100.00
2022-09-14T18:43:47.421Z,100.00
2022-09-14T18:46:14.924Z,100.00
2022-09-14T18:48:43.988Z,100.00
2022-09-14T18:51:12.410Z,100.00
2022-09-14T18:53:40.029Z,100.00
2022-09-14T18:56:09.332Z,100.00
2022-09-14T18:58:37.668Z,100.00
2022-09-14T19:01:05.029Z,100.00
2022-09-14T19:03:32.379Z,100.00
2022-09-14T19:06:04.734Z,100.00
2022-09-14T19:08:31.592Z,100.00
2022-09-14T19:11:04.201Z,100.00
2022-09-14T19:13:30.711Z,100.00
2022-09-14T19:15:57.276Z,100.00
2022-09-14T19:18:23.872Z,100.00
2022-09-14T19:21:05.791Z,100.00
2022-09-14T19:23:36.389Z,100.00
2022-09-14T19:26:08.325Z,100.00
2022-09-14T19:28:35.781Z,100.00
2022-09-14T19:31:10.945Z,100.00
2022-09-14T19:33:39.231Z,100.00
2022-09-14T19:36:14.142Z,100.00
2022-09-14T19:38:41.208Z,100.00
2022-09-14T19:41:08.748Z,100.00
2022-09-14T19:43:35.704Z,100.00
2022-09-14T19:46:10.193Z,100.00
2022-09-14T19:48:37.298Z,100.00
2022-09-14T19:54:00.624Z,100.00
2022-09-14T19:56:30.146Z,100.00
2022-09-14T19:59:00.451Z,100.00
2022-09-14T20:01:28.742Z,100.00
2022-09-14T20:03:55.426Z,100.00
2022-09-14T20:06:29.663Z,100.00
2022-09-14T20:08:58.245Z,100.00
2022-09-14T20:11:30.982Z,100.00
2022-09-14T20:13:59.289Z,100.00
2022-09-14T20:16:32.085Z,100.00
2022-09-14T20:19:04.467Z,100.00
2022-09-14T20:21:31.191Z,100.00
2022-09-14T20:24:16.620Z,100.00
2022-09-14T20:26:46.159Z,100.00
2022-09-14T20:29:12.822Z,100.00
2022-09-14T20:31:39.629Z,100.00
2022-09-14T20:34:06.295Z,100.00
2022-09-14T20:36:32.822Z,100.00
2022-09-14T20:38:59.950Z,100.00
2022-09-14T20:41:29.347Z,100.00
2022-09-14T20:43:56.466Z,100.00
2022-09-14T20:46:25.998Z,100.00
2022-09-14T20:48:53.966Z,100.00
2022-09-14T20:51:22.973Z,100.00
2022-09-14T20:53:49.600Z,100.00
2022-09-14T20:56:27.915Z,100.00
2022-09-14T20:58:56.861Z,100.00
2022-09-14T21:01:26.133Z,100.00
2022-09-14T21:03:53.460Z,100.00
2022-09-14T21:06:22.680Z,100.00
2022-09-14T21:08:49.575Z,100.00
2022-09-14T21:11:19.166Z,100.00
2022-09-14T21:13:46.231Z,100.00
2022-09-14T21:16:22.405Z,100.00
2022-09-14T21:18:56.517Z,100.00
2022-09-14T21:21:23.713Z,100.00
2022-09-14T21:23:51.027Z,100.00
2022-09-14T21:26:19.349Z,100.00
2022-09-14T21:28:46.621Z,100.00
2022-09-14T21:31:19.344Z,100.00
2022-09-14T21:33:48.833Z,100.00
2022-09-14T21:36:23.749Z,100.00
2022-09-14T21:38:52.700Z,100.00
2022-09-14T21:41:21.090Z,100.00
2022-09-14T21:43:48.746Z,100.00
2022-09-14T21:46:16.031Z,100.00
2022-09-14T21:48:43.251Z,100.00
2022-09-14T21:51:17.926Z,100.00
2022-09-14T21:53:46.593Z,100.00
2022-09-14T21:56:14.071Z,100.00
2022-09-14T21:58:40.735Z,100.00
2022-09-14T22:01:08.318Z,100.00
2022-09-14T22:03:36.727Z,100.00
2022-09-14T22:06:06.998Z,100.00
2022-09-14T22:08:35.022Z,100.00
2022-09-14T22:11:10.968Z,100.00
2022-09-14T22:13:38.601Z,100.00
2022-09-14T22:16:10.186Z,100.00
2022-09-14T22:18:38.772Z,100.00
2022-09-14T22:21:06.174Z,100.00
2022-09-14T22:23:34.254Z,100.00
2022-09-14T22:26:09.310Z,100.00
2022-09-14T22:28:36.681Z,100.00
2022-09-14T22:31:03.457Z,100.00
2022-09-14T22:33:30.125Z,100.00
2022-09-14T22:35:59.476Z,100.00
2022-09-14T22:38:28.615Z,100.00
2022-09-14T22:41:07.135Z,100.00
2022-09-14T22:43:35.383Z,100.00
2022-09-14T22:46:02.932Z,100.00
2022-09-14T22:48:29.755Z,100.00
2022-09-14T22:50:57.859Z,100.00
2022-09-14T22:53:25.462Z,100.00
2022-09-14T22:55:52.605Z,100.00
2022-09-14T22:58:22.750Z,100.00
2022-09-14T23:00:49.761Z,100.00
2022-09-14T23:03:17.396Z,100.00
2022-09-14T23:06:01.779Z,100.00
2022-09-14T23:08:28.899Z,100.00
2022-09-14T23:10:55.784Z,100.00
2022-09-14T23:13:22.919Z,100.00
2022-09-14T23:15:49.456Z,100.00
2022-09-14T23:18:16.014Z,100.00
2022-09-14T23:20:44.594Z,100.00
2022-09-14T23:23:12.153Z,100.00
2022-09-14T23:25:40.057Z,100.00
2022-09-14T23:28:09.942Z,100.00
2022-09-14T23:30:36.557Z,100.00
2022-09-14T23:33:03.129Z,100.00
2022-09-14T23:35:30.685Z,100.00
2022-09-14T23:37:58.635Z,100.00
2022-09-14T23:40:25.249Z,100.00
2022-09-14T23:42:52.049Z,100.00
2022-09-14T23:45:18.678Z,100.00
2022-09-14T23:47:46.072Z,100.00
2022-09-14T23:50:12.649Z,100.00
2022-09-14T23:52:40.652Z,100.00
2022-09-14T23:55:07.833Z,100.00
2022-09-14T23:57:34.390Z,100.00
